Time;durP1;ratioP1;P1;durP2;ratioP2;P2;SDS_P1;SDS_P2;PMS_P1;PMS_P2;Temp;Humidity;BMP_temperature;BMP_pressure;BME280_temperature;BME280_humidity;BME280_pressure;Samples;Min_cycle;Max_cycle;Signal;HPM_P1;HPM_P2
2022/02/09 00:00:02;;;;;;;7.23;6.47;;;;;;;2.28;75.19;95605.94;5033092;28;20455;-79
2022/02/09 00:02:39;;;;;;;13.43;6.30;;;;;;;2.20;75.93;95600.25;5032535;28;20964;-80
2022/02/09 00:05:26;;;;;;;9.90;7.50;;;;;;;2.20;76.45;95598.50;5032777;28;20525;-80
2022/02/09 00:08:01;;;;;;;8.60;5.80;;;;;;;2.23;76.80;95603.53;5032990;28;20258;-78
2022/02/09 00:10:31;;;;;;;19.13;5.43;;;;;;;2.30;76.23;95597.19;5032848;28;21003;-80
2022/02/09 00:13:16;;;;;;;8.20;5.17;;;;;;;2.27;76.48;95599.06;5032597;28;20454;-80
2022/02/09 00:15:51;;;;;;;13.52;5.88;;;;;;;2.30;76.34;95594.59;5032526;28;20494;-79
2022/02/09 00:18:27;;;;;;;10.27;6.40;;;;;;;2.35;76.21;95597.88;5032962;28;20613;-80
2022/02/09 00:21:12;;;;;;;10.87;5.27;;;;;;;2.27;76.26;95610.28;5032663;28;20226;-80
2022/02/09 00:29:33;;;;;;;7.67;5.50;;;;;;;2.16;76.64;95607.28;5032896;28;20423;-79
2022/02/09 00:35:11;;;;;;;11.50;6.27;;;;;;;2.19;76.94;95622.69;5017000;28;20706;-80
2022/02/09 00:43:36;;;;;;;13.90;5.53;;;;;;;2.15;77.50;95629.75;5032205;28;20498;-80
2022/02/09 01:02:46;;;;;;;8.02;5.75;;;;;;;2.18;77.52;95615.84;4949607;28;20337;-80
2022/02/09 01:38:02;;;;;;;6.77;4.97;;;;;;;2.15;77.21;95627.16;4974740;28;20676;-79
2022/02/09 01:39:10;;;;;;;6.15;5.28;;;;;;;2.15;77.57;95615.97;4936326;29;20203;-79
2022/02/09 01:55:40;;;;;;;9.30;4.73;;;;;;;2.24;78.22;95605.22;4897678;29;20792;-80
2022/02/09 01:58:07;;;;;;;10.05;4.13;;;;;;;2.29;77.70;95603.28;4897763;29;21117;-79
2022/02/09 02:00:34;;;;;;;10.60;6.13;;;;;;;2.29;77.72;95613.63;4897843;29;20214;-80
2022/02/09 02:03:01;;;;;;;13.48;4.82;;;;;;;2.34;77.78;95601.38;4897927;29;20471;-79
2022/02/09 02:05:29;;;;;;;8.38;5.22;;;;;;;2.39;77.13;95616.72;4897844;29;20216;-80
2022/02/09 02:07:59;;;;;;;19.95;6.10;;;;;;;2.32;76.87;95610.13;4897970;29;20209;-80
2022/02/09 02:10:33;;;;;;;12.10;5.15;;;;;;;2.35;77.51;95617.75;4897721;29;20216;-80
2022/02/09 02:13:14;;;;;;;11.13;5.88;;;;;;;2.36;77.21;95625.44;4897659;29;20213;-79
2022/02/09 02:16:07;;;;;;;9.80;5.65;;;;;;;2.44;77.41;95631.16;4938289;28;20372;-80
2022/02/09 02:18:35;;;;;;;14.35;5.75;;;;;;;2.46;77.19;95629.34;4973630;28;20202;-79
2022/02/09 02:21:21;;;;;;;9.68;5.20;;;;;;;2.54;77.30;95633.34;4973975;28;20685;-79
2022/02/09 02:26:43;;;;;;;7.80;5.63;;;;;;;2.53;76.54;95631.66;4954166;28;20303;-79
2022/02/09 02:35:34;;;;;;;8.70;5.73;;;;;;;2.63;77.73;95645.94;4916257;29;20283;-79
2022/02/09 02:38:14;;;;;;;8.90;5.87;;;;;;;2.73;77.31;95644.66;4916132;29;20510;-79
2022/02/09 02:57:27;;;;;;;11.43;6.30;;;;;;;2.75;77.28;95654.03;4915948;29;20207;-80
2022/02/09 03:11:06;;;;;;;11.50;5.60;;;;;;;2.86;77.69;95670.88;5000499;28;20972;-79
2022/02/09 03:13:37;;;;;;;12.00;6.00;;;;;;;2.90;77.67;95670.69;5034239;28;20451;-79
2022/02/09 03:16:09;;;;;;;5.47;4.70;;;;;;;2.95;77.93;95686.91;5034315;28;20578;-79
2022/02/09 03:19:02;;;;;;;11.70;6.40;;;;;;;3.05;77.30;95687.34;5000478;28;20847;-80
2022/02/09 03:21:41;;;;;;;8.67;6.33;;;;;;;3.08;77.16;95687.19;5033862;28;20455;-80
2022/02/09 03:24:13;;;;;;;7.40;5.63;;;;;;;3.10;76.72;95691.41;5002433;28;20448;-80
2022/02/09 03:27:03;;;;;;;18.33;5.73;;;;;;;2.98;77.42;95685.91;4998560;28;20438;-79
2022/02/09 03:43:45;;;;;;;7.63;6.27;;;;;;;3.07;78.05;95649.22;4991786;28;20465;-79
2022/02/09 03:46:27;;;;;;;17.03;6.57;;;;;;;3.13;78.32;95654.13;4991658;28;21000;-79
2022/02/09 03:49:08;;;;;;;11.53;6.63;;;;;;;3.18;78.00;95661.72;4991911;28;20446;-79
2022/02/09 03:54:30;;;;;;;7.70;5.67;;;;;;;3.31;76.99;95652.50;4952392;29;20538;-80
2022/02/09 03:57:01;;;;;;;11.23;7.33;;;;;;;3.40;77.73;95649.50;4952897;28;20487;-78
2022/02/09 03:59:31;;;;;;;9.27;5.87;;;;;;;3.49;77.16;95656.03;4952651;28;21030;-80
2022/02/09 04:02:00;;;;;;;6.67;5.33;;;;;;;3.52;77.38;95654.16;4952799;28;20445;-81
2022/02/09 04:04:27;;;;;;;10.43;6.00;;;;;;;3.51;76.68;95660.25;4952717;29;20448;-80
2022/02/09 04:06:54;;;;;;;10.10;5.33;;;;;;;3.34;77.08;95644.59;4952510;28;20922;-79
2022/02/09 04:09:25;;;;;;;14.40;6.63;;;;;;;3.36;78.41;95661.75;4952523;29;20461;-80
2022/02/09 04:12:04;;;;;;;10.23;5.80;;;;;;;3.34;77.89;95657.56;4952741;28;20456;-80
2022/02/09 04:14:39;;;;;;;13.20;6.20;;;;;;;3.44;77.75;95651.03;4952513;28;20460;-80
2022/02/09 04:17:25;;;;;;;8.30;7.10;;;;;;;3.44;77.51;95661.41;4967645;28;20477;-80
2022/02/09 04:20:13;;;;;;;10.83;6.30;;;;;;;3.47;78.95;95652.66;4971946;28;20464;-80
2022/02/09 04:36:33;;;;;;;9.83;6.20;;;;;;;3.58;79.13;95647.84;5033518;28;20463;-80
2022/02/09 04:39:09;;;;;;;10.83;6.67;;;;;;;3.63;79.18;95644.13;5034534;28;20457;-79
2022/02/09 04:55:31;;;;;;;15.37;7.10;;;;;;;3.67;80.83;95632.69;5010372;28;20842;-80
2022/02/09 04:58:04;;;;;;;15.33;7.20;;;;;;;3.74;80.92;95634.06;5013611;28;20981;-79
2022/02/09 05:00:39;;;;;;;7.00;4.97;;;;;;;3.82;81.11;95638.09;4979203;28;20467;-81
2022/02/09 05:03:43;;;;;;;7.03;4.57;;;;;;;3.81;80.24;95626.03;5012978;28;20646;-79
2022/02/09 05:22:58;;;;;;;8.77;6.30;;;;;;;3.93;81.16;95661.78;4951775;29;20867;-80
2022/02/09 05:25:41;;;;;;;6.03;5.53;;;;;;;3.92;82.03;95655.75;4951757;29;20457;-80
2022/02/09 05:28:13;;;;;;;6.30;4.87;;;;;;;4.02;82.45;95666.53;4951851;29;20476;-80
2022/02/09 05:30:40;;;;;;;7.50;6.00;;;;;;;4.04;82.09;95665.56;4951998;29;20512;-81
2022/02/09 05:33:07;;;;;;;5.70;5.20;;;;;;;4.03;81.84;95652.63;4951779;29;20452;-81
2022/02/09 05:35:34;;;;;;;6.33;4.87;;;;;;;4.00;81.97;95653.63;4951801;29;20496;-81
2022/02/09 05:38:02;;;;;;;10.07;5.43;;;;;;;4.00;81.92;95664.00;4919964;29;20454;-80
2022/02/09 05:40:29;;;;;;;6.00;5.40;;;;;;;4.02;82.33;95663.94;4951520;29;20439;-81
2022/02/09 05:42:57;;;;;;;7.50;5.90;;;;;;;4.11;82.07;95660.94;4950818;29;20520;-80
2022/02/09 05:45:32;;;;;;;7.97;6.10;;;;;;;4.18;81.59;95662.31;4968733;28;20665;-81
2022/02/09 05:50:52;;;;;;;7.07;5.33;;;;;;;4.25;81.57;95660.25;4971930;28;20428;-82
2022/02/09 05:53:23;;;;;;;8.77;6.40;;;;;;;4.24;81.71;95663.78;4972080;28;20543;-81
2022/02/09 05:55:51;;;;;;;8.70;6.20;;;;;;;4.17;82.28;95665.84;4982166;28;20502;-79
2022/02/09 05:58:36;;;;;;;12.90;7.17;;;;;;;4.09;82.88;95672.31;5010947;28;20438;-81
2022/02/09 06:01:11;;;;;;;8.70;6.00;;;;;;;4.09;82.91;95678.34;5012772;28;20448;-83
2022/02/09 06:03:38;;;;;;;6.73;6.10;;;;;;;4.09;83.54;95685.28;5014602;28;20517;-82
2022/02/09 06:06:04;;;;;;;7.57;5.40;;;;;;;4.04;82.88;95691.53;5014226;28;20453;-82
2022/02/09 06:08:31;;;;;;;9.10;6.80;;;;;;;3.99;83.63;95693.50;5014456;28;20450;-82
2022/02/09 06:11:11;;;;;;;6.20;5.10;;;;;;;3.94;84.64;95692.03;5014354;28;20481;-81
2022/02/09 06:21:59;;;;;;;6.10;5.50;;;;;;;4.08;86.71;95714.78;4936818;29;20221;-84
2022/02/09 06:24:26;;;;;;;6.93;5.70;;;;;;;4.16;85.76;95718.69;4936478;29;20450;-81
2022/02/09 06:26:53;;;;;;;10.00;5.97;;;;;;;4.20;85.75;95717.63;4925557;28;20461;-80
2022/02/09 06:29:20;;;;;;;11.53;7.80;;;;;;;4.24;84.95;95726.13;4994472;28;20444;-81
2022/02/09 06:31:50;;;;;;;8.07;6.93;;;;;;;4.34;85.52;95732.59;4995033;28;20448;-80
2022/02/09 06:34:19;;;;;;;9.90;6.90;;;;;;;4.36;84.26;95728.16;4994487;28;20555;-79
2022/02/09 06:36:52;;;;;;;9.27;6.60;;;;;;;4.41;84.43;95735.75;4994055;28;20478;-81
2022/02/09 06:39:20;;;;;;;7.20;5.70;;;;;;;4.37;84.37;95734.19;4994394;28;20443;-81
2022/02/09 06:41:47;;;;;;;6.67;5.83;;;;;;;4.38;84.86;95731.53;4994859;28;20431;-82
2022/02/09 06:44:14;;;;;;;8.17;6.87;;;;;;;4.42;84.13;95734.81;4994006;28;20450;-80
2022/02/09 06:46:41;;;;;;;11.90;6.63;;;;;;;4.44;82.99;95731.22;4994123;28;20436;-80
2022/02/09 06:49:09;;;;;;;11.77;6.70;;;;;;;4.52;83.54;95729.09;4993995;28;20451;-82
2022/02/09 06:51:38;;;;;;;13.75;8.73;;;;;;;4.54;84.15;95731.63;4960918;28;20940;-81
2022/02/09 06:54:12;;;;;;;6.83;5.90;;;;;;;4.61;83.09;95739.06;5050548;28;20577;-80
2022/02/09 06:57:01;;;;;;;8.70;6.20;;;;;;;4.58;83.41;95739.19;5055344;28;20504;-81
2022/02/09 06:59:31;;;;;;;8.83;4.93;;;;;;;4.58;86.18;95736.59;5020552;28;20434;-81
2022/02/09 07:02:02;;;;;;;11.10;6.40;;;;;;;4.55;85.06;95744.56;5055191;28;20436;-80
2022/02/09 07:04:31;;;;;;;9.63;7.33;;;;;;;4.61;84.65;95744.25;5055383;28;20509;-80
2022/02/09 07:06:57;;;;;;;12.73;7.30;;;;;;;4.61;84.86;95735.63;5054898;28;20793;-82
2022/02/09 07:09:25;;;;;;;6.80;4.67;;;;;;;4.56;84.73;95722.84;5053393;28;20451;-81
2022/02/09 07:11:52;;;;;;;11.90;6.80;;;;;;;4.61;85.10;95727.81;5053679;28;20445;-80
2022/02/09 07:14:23;;;;;;;12.70;7.23;;;;;;;4.58;85.21;95721.00;5053538;28;20442;-82
2022/02/09 07:16:50;;;;;;;14.87;8.90;;;;;;;4.57;85.03;95726.28;5055012;28;20527;-80
2022/02/09 07:19:17;;;;;;;7.07;5.67;;;;;;;4.51;85.14;95723.97;5053798;28;20491;-81
2022/02/09 07:21:46;;;;;;;8.63;6.40;;;;;;;4.45;86.24;95716.47;5054446;28;20456;-81
2022/02/09 07:24:14;;;;;;;21.20;10.53;;;;;;;4.49;88.57;95729.25;5055444;28;20858;-80
2022/02/09 07:27:01;;;;;;;16.80;8.67;;;;;;;4.50;89.35;95730.09;5054803;28;20445;-80
2022/02/09 07:32:52;;;;;;;19.40;12.10;;;;;;;4.54;87.95;95742.88;5054633;28;20390;-82
2022/02/09 07:35:19;;;;;;;13.17;9.60;;;;;;;4.50;89.49;95730.94;5054371;28;20452;-82
2022/02/09 07:37:47;;;;;;;11.70;8.70;;;;;;;4.54;87.79;95744.63;5054354;28;20961;-82
2022/02/09 07:40:14;;;;;;;12.10;10.90;;;;;;;4.51;87.84;95744.78;5054432;28;20452;-83
2022/02/09 07:42:46;;;;;;;10.07;6.33;;;;;;;4.51;88.16;95753.41;5054992;28;20439;-83
2022/02/09 07:45:41;;;;;;;17.57;7.60;;;;;;;4.49;87.38;95752.66;5054199;28;20483;-83
2022/02/09 07:48:37;;;;;;;9.57;6.50;;;;;;;4.60;87.92;95754.72;5053278;28;20460;-83
2022/02/09 07:51:37;;;;;;;9.30;5.57;;;;;;;4.73;92.58;95742.84;5053416;28;20433;-83
2022/02/09 07:54:05;;;;;;;11.10;7.00;;;;;;;4.71;87.36;95755.06;5053300;28;20548;-83
2022/02/09 07:56:33;;;;;;;6.77;6.07;;;;;;;4.70;88.77;95743.00;5053015;28;20489;-84
2022/02/09 07:59:01;;;;;;;12.73;9.17;;;;;;;4.74;85.37;95748.88;5053928;28;20429;-83
2022/02/09 08:01:29;;;;;;;15.60;8.93;;;;;;;4.76;84.53;95753.09;5054472;28;20453;-82
2022/02/09 08:03:57;;;;;;;10.20;8.70;;;;;;;4.87;85.73;95756.00;5053631;28;20440;-82
2022/02/09 08:06:25;;;;;;;7.53;6.17;;;;;;;4.96;86.39;95760.78;5054743;28;20197;-80
2022/02/09 08:08:53;;;;;;;10.87;6.70;;;;;;;5.01;83.79;95767.50;5053737;28;20434;-79
2022/02/09 08:11:25;;;;;;;9.03;6.43;;;;;;;5.16;84.76;95761.53;5054041;28;20457;-83
2022/02/09 08:31:11;;;;;;;4.93;4.33;;;;;;;5.20;82.61;95742.25;4896705;29;20432;-83
2022/02/09 08:33:38;;;;;;;4.40;3.90;;;;;;;5.41;82.05;95737.72;4897068;29;20789;-82
2022/02/09 08:36:05;;;;;;;9.77;5.40;;;;;;;5.49;80.65;95738.16;4896192;29;20492;-80
2022/02/09 08:38:32;;;;;;;5.93;5.20;;;;;;;5.64;80.69;95736.56;4896308;29;20465;-83
2022/02/09 08:40:59;;;;;;;9.77;4.87;;;;;;;5.67;80.21;95731.19;4865842;29;20982;-82
2022/02/09 08:43:28;;;;;;;6.70;4.80;;;;;;;5.80;80.42;95724.44;4865550;29;20983;-83
2022/02/09 08:45:54;;;;;;;21.77;9.40;;;;;;;5.94;81.42;95731.53;4896567;29;20945;-81
2022/02/09 08:48:23;;;;;;;15.63;10.37;;;;;;;6.07;79.04;95727.34;4896641;29;20828;-80
2022/02/09 08:50:50;;;;;;;16.80;11.40;;;;;;;6.13;78.71;95717.44;4896187;29;20453;-82
2022/02/09 08:53:19;;;;;;;17.90;11.47;;;;;;;6.28;79.21;95726.19;4895594;29;20452;-81
2022/02/09 08:55:47;;;;;;;11.83;9.13;;;;;;;6.25;77.21;95741.16;4917066;28;20476;-82
2022/02/09 08:58:17;;;;;;;7.17;6.37;;;;;;;6.31;80.33;95740.81;4991851;28;20452;-80
2022/02/09 09:00:46;;;;;;;9.57;6.77;;;;;;;6.33;77.71;95742.41;4991763;28;20451;-83
2022/02/09 09:03:18;;;;;;;8.50;7.03;;;;;;;6.28;77.68;95751.41;4992073;28;20534;-82
2022/02/09 09:05:48;;;;;;;13.97;6.27;;;;;;;6.30;80.69;95752.16;4991905;28;20425;-82
2022/02/09 09:58:53;;;;;;;8.83;5.87;;;;;;;7.72;77.33;95727.44;4992723;28;20783;-82
2022/02/09 10:01:23;;;;;;;5.10;3.87;;;;;;;7.74;76.79;95740.41;5015952;28;20444;-83
2022/02/09 10:04:11;;;;;;;8.60;5.50;;;;;;;7.69;75.70;95737.22;5013218;28;20456;-82
2022/02/09 10:35:11;;;;;;;9.30;5.27;;;;;;;8.15;75.77;95724.81;5055771;28;20412;-83
2022/02/09 10:37:38;;;;;;;10.30;5.80;;;;;;;8.15;75.08;95726.59;5021512;28;20994;-83
2022/02/09 10:40:12;;;;;;;5.23;4.70;;;;;;;8.15;75.28;95721.38;5055655;28;20442;-83
2022/02/09 10:42:43;;;;;;;4.60;4.20;;;;;;;8.05;74.95;95727.16;5056169;28;20443;-83
2022/02/09 10:45:31;;;;;;;4.60;4.20;;;;;;;7.97;75.85;95718.94;5055510;28;20532;-82
2022/02/09 10:47:57;;;;;;;4.90;4.40;;;;;;;8.06;78.17;95725.38;5055576;28;20460;-81
2022/02/09 10:50:27;;;;;;;8.52;5.13;;;;;;;8.04;75.19;95715.00;5055313;28;20470;-83
2022/02/09 10:52:59;;;;;;;7.43;4.53;;;;;;;8.02;75.22;95723.88;5055759;28;20209;-82
2022/02/09 10:55:34;;;;;;;6.93;4.40;;;;;;;8.08;77.48;95707.81;5055324;28;20454;-82
2022/02/09 10:58:02;;;;;;;13.17;10.53;;;;;;;8.20;74.96;95721.91;5055161;28;20981;-83
2022/02/09 11:00:29;;;;;;;7.33;6.53;;;;;;;8.25;75.82;95717.25;5055813;28;20433;-82
2022/02/09 11:02:56;;;;;;;8.13;5.20;;;;;;;8.26;74.87;95716.31;5055220;28;20443;-82
2022/02/09 11:05:24;;;;;;;11.73;4.97;;;;;;;8.24;74.65;95712.94;5055356;28;20826;-82
2022/02/09 11:07:52;;;;;;;7.53;6.00;;;;;;;8.08;74.75;95708.66;5055043;28;20996;-83
2022/02/09 11:10:19;;;;;;;9.30;6.60;;;;;;;8.03;75.74;95720.34;5055786;28;20430;-82
2022/02/09 11:12:47;;;;;;;6.23;5.63;;;;;;;7.95;75.31;95715.59;5055040;28;20439;-82
2022/02/09 11:15:18;;;;;;;7.73;5.57;;;;;;;8.05;75.36;95714.06;5055222;28;20451;-82
2022/02/09 11:17:47;;;;;;;8.70;5.53;;;;;;;8.15;76.54;95714.38;5055280;28;20970;-83
2022/02/09 11:20:14;;;;;;;8.50;7.70;;;;;;;8.24;75.49;95713.78;5054880;28;20442;-82
2022/02/09 11:22:42;;;;;;;8.20;5.63;;;;;;;8.28;75.82;95715.28;5036525;28;20448;-82
2022/02/09 11:32:32;;;;;;;6.73;6.13;;;;;;;8.32;75.31;95715.91;5053780;28;20443;-82
2022/02/09 11:35:14;;;;;;;6.73;6.13;;;;;;;8.26;76.10;95709.31;5055287;28;20472;-81
2022/02/09 11:37:52;;;;;;;10.73;5.53;;;;;;;8.21;76.61;95703.53;5021550;28;20929;-82
2022/02/09 11:40:29;;;;;;;8.50;6.40;;;;;;;8.06;75.40;95709.69;5037442;28;20530;-83
2022/02/09 11:43:04;;;;;;;9.03;7.17;;;;;;;7.89;75.46;95712.50;5054390;28;20432;-83
2022/02/09 11:46:01;;;;;;;9.87;5.17;;;;;;;7.83;76.45;95718.97;5054521;28;20531;-83
2022/02/09 11:49:10;;;;;;;7.53;5.20;;;;;;;7.67;77.03;95723.41;5055108;28;20450;-83
2022/02/09 11:51:52;;;;;;;9.43;6.60;;;;;;;7.60;81.76;95722.13;5054063;28;20466;-83
2022/02/09 11:57:45;;;;;;;15.23;7.03;;;;;;;7.47;77.59;95720.22;5012249;28;20489;-83
2022/02/09 12:10:13;;;;;;;9.03;6.50;;;;;;;7.16;79.47;95717.72;4937307;28;20422;-83
2022/02/09 12:12:46;;;;;;;8.60;6.30;;;;;;;7.12;80.68;95711.84;4881418;29;20447;-83
2022/02/09 12:15:44;;;;;;;4.80;4.43;;;;;;;7.17;79.63;95713.34;4896766;29;20454;-81
2022/02/09 12:21:50;;;;;;;13.93;9.93;;;;;;;7.16;79.42;95736.00;4896962;29;20453;-80
2022/02/09 12:24:26;;;;;;;20.93;9.17;;;;;;;7.11;79.55;95731.03;4896632;29;20463;-82
2022/02/09 12:26:58;;;;;;;6.70;6.00;;;;;;;7.05;79.97;95738.38;4902489;29;20978;-81
2022/02/09 12:29:30;;;;;;;11.27;7.80;;;;;;;6.97;79.83;95731.00;4915535;29;20441;-83
2022/02/09 12:31:57;;;;;;;12.07;6.10;;;;;;;6.99;81.14;95736.13;4869402;29;20460;-84
2022/02/09 12:34:26;;;;;;;10.93;6.77;;;;;;;7.03;80.71;95737.63;4925874;29;20463;-81
2022/02/09 12:36:54;;;;;;;7.10;6.23;;;;;;;7.05;80.57;95751.44;4934254;29;20501;-81
2022/02/09 12:39:23;;;;;;;10.98;7.38;;;;;;;7.01;80.69;95745.56;4887433;29;20854;-81
2022/02/09 12:41:53;;;;;;;11.03;6.07;;;;;;;7.02;80.08;95746.41;4935017;29;20445;-82
2022/02/09 12:44:23;;;;;;;8.10;5.63;;;;;;;7.02;80.83;95749.00;4977395;28;20551;-82
2022/02/09 12:46:50;;;;;;;8.27;5.97;;;;;;;7.05;80.32;95747.06;4992265;28;20517;-82
2022/02/09 12:49:19;;;;;;;6.47;5.07;;;;;;;7.05;80.22;95751.44;5029571;28;20465;-83
2022/02/09 12:51:50;;;;;;;7.13;5.13;;;;;;;7.11;79.92;95751.91;5053651;28;20522;-83
2022/02/09 12:54:20;;;;;;;5.33;4.93;;;;;;;7.12;80.39;95750.16;5054087;28;20506;-82
2022/02/09 13:00:32;;;;;;;5.80;5.30;;;;;;;7.08;79.64;95741.66;5035279;28;20462;-83
2022/02/09 13:03:01;;;;;;;10.60;6.90;;;;;;;7.11;80.00;95758.91;5053985;28;20455;-82
2022/02/09 13:05:29;;;;;;;6.53;5.43;;;;;;;7.09;80.17;95752.94;5053377;28;20450;-83
2022/02/09 13:07:58;;;;;;;12.50;6.57;;;;;;;7.09;80.38;95752.94;5053458;28;20484;-82
2022/02/09 13:10:28;;;;;;;9.63;6.67;;;;;;;7.03;80.10;95758.50;5055653;28;20521;-82
2022/02/09 13:13:00;;;;;;;9.50;7.00;;;;;;;7.05;81.08;95754.06;5057927;28;20448;-81
2022/02/09 13:15:31;;;;;;;6.80;5.70;;;;;;;6.98;81.39;95752.72;5057431;28;20871;-81
2022/02/09 13:18:17;;;;;;;10.73;7.33;;;;;;;7.07;82.14;95765.25;5057135;28;20474;-82
2022/02/09 14:13:28;;;;;;;22.37;13.87;;;;;;;6.52;87.65;95763.09;5055993;28;20475;-81
2022/02/09 14:47:34;;;;;;;12.17;10.23;;;;;;;6.27;90.07;95804.44;4974601;28;20469;-80
2022/02/09 14:53:30;;;;;;;11.57;10.00;;;;;;;6.11;91.88;95800.06;5013446;28;20461;-80
2022/02/09 14:56:05;;;;;;;11.63;10.43;;;;;;;6.09;92.13;95791.50;5033399;28;20450;-80
2022/02/09 14:58:35;;;;;;;11.27;9.70;;;;;;;6.17;93.35;95809.31;5052811;28;20481;-80
2022/02/09 15:01:07;;;;;;;12.13;10.47;;;;;;;6.12;91.74;95795.69;5054054;28;20469;-79
2022/02/09 15:06:40;;;;;;;11.00;9.53;;;;;;;6.09;92.18;95801.91;5012855;28;20439;-80
2022/02/09 15:09:13;;;;;;;10.80;8.80;;;;;;;5.92;92.70;95782.88;4962930;28;20452;-80
2022/02/09 15:11:53;;;;;;;14.40;10.80;;;;;;;5.89;93.07;95786.44;5011823;28;20812;-80
2022/02/09 15:14:26;;;;;;;11.10;8.87;;;;;;;5.77;93.15;95787.91;5011599;28;20443;-81
2022/02/09 15:17:02;;;;;;;10.00;8.90;;;;;;;5.86;93.79;95799.63;5011509;28;20459;-81
2022/02/09 15:19:40;;;;;;;13.20;11.00;;;;;;;5.96;93.90;95793.03;4967100;28;20939;-80
2022/02/09 15:22:09;;;;;;;14.17;10.77;;;;;;;5.92;92.59;95793.28;5011851;28;21050;-81
2022/02/09 15:24:42;;;;;;;12.20;10.60;;;;;;;5.92;92.62;95783.72;4963503;28;20553;-80
2022/02/09 15:27:13;;;;;;;13.33;11.13;;;;;;;5.88;93.02;95782.16;5012731;28;20452;-81
2022/02/09 15:29:40;;;;;;;15.70;11.97;;;;;;;5.91;93.34;95795.03;5012878;28;20443;-80
2022/02/09 15:32:16;;;;;;;16.23;11.20;;;;;;;5.94;94.26;95784.47;5011499;28;20439;-81
2022/02/09 15:34:46;;;;;;;11.63;10.40;;;;;;;6.00;93.65;95794.56;4965288;28;20534;-82
2022/02/09 15:37:18;;;;;;;12.53;9.33;;;;;;;5.99;93.24;95798.09;5011704;28;20526;-80
2022/02/09 15:39:51;;;;;;;12.87;9.83;;;;;;;5.99;92.75;95799.84;5011708;28;20455;-81
2022/02/09 15:42:43;;;;;;;12.03;10.73;;;;;;;5.98;92.45;95800.78;5013717;28;20869;-81
2022/02/09 15:56:23;;;;;;;11.90;8.10;;;;;;;5.97;92.10;95807.75;5054223;28;20526;-81
2022/02/09 16:09:52;;;;;;;12.23;10.00;;;;;;;5.92;92.38;95814.97;5053917;28;20410;-79
2022/02/09 16:23:27;;;;;;;11.30;9.00;;;;;;;5.86;91.10;95841.31;5053533;28;20430;-86
2022/02/09 16:26:04;;;;;;;17.23;13.27;;;;;;;5.77;91.86;95826.13;5054965;28;20944;-84
2022/02/09 16:52:17;;;;;;;9.70;7.83;;;;;;;6.52;88.89;95883.88;4915222;29;20487;-84
2022/02/09 16:54:53;;;;;;;10.90;9.20;;;;;;;6.44;89.37;95880.00;4915228;29;20448;-83
2022/02/09 17:08:39;;;;;;;13.17;10.47;;;;;;;6.28;88.91;95887.78;4859327;29;20443;-83
2022/02/09 17:15:30;;;;;;;11.23;9.80;;;;;;;6.18;89.41;95869.16;4858502;29;20443;-79
2022/02/09 17:19:34;;;;;;;9.97;8.93;;;;;;;6.18;90.02;95889.19;5006920;28;20511;-83
2022/02/09 17:22:01;;;;;;;15.63;11.67;;;;;;;6.25;90.93;95894.91;5011740;28;20962;-81
2022/02/09 17:24:30;;;;;;;9.67;8.67;;;;;;;6.15;90.20;95890.19;5011870;28;20444;-83
2022/02/09 17:26:57;;;;;;;14.80;10.00;;;;;;;6.12;90.28;95894.72;5011350;28;21021;-81
2022/02/09 17:29:33;;;;;;;16.53;11.77;;;;;;;6.11;90.50;95901.69;5011369;28;20939;-80
2022/02/09 17:32:07;;;;;;;19.25;13.65;;;;;;;6.08;90.42;95904.44;5011127;28;20526;-81
2022/02/09 17:53:26;;;;;;;12.70;11.40;;;;;;;5.94;91.36;95922.53;4991583;28;20448;-84
2022/02/09 17:55:58;;;;;;;18.07;13.60;;;;;;;5.98;90.92;95921.44;4991634;28;20499;-85
2022/02/09 18:01:48;;;;;;;10.67;9.30;;;;;;;5.87;91.44;95905.50;4992713;28;20499;-83
2022/02/09 18:04:16;;;;;;;12.83;9.23;;;;;;;5.92;91.33;95916.56;4995262;28;20444;-85
2022/02/09 18:06:48;;;;;;;11.23;9.63;;;;;;;5.89;91.25;95914.06;4995152;28;20624;-84
2022/02/09 18:09:24;;;;;;;15.80;10.70;;;;;;;5.97;90.52;95918.91;4995125;28;20436;-85
2022/02/09 18:12:02;;;;;;;17.80;12.67;;;;;;;5.94;89.83;95922.53;4995144;28;20463;-83
2022/02/09 18:26:15;;;;;;;20.50;14.40;;;;;;;6.01;89.47;95923.06;4899361;29;20583;-85
2022/02/09 18:31:34;;;;;;;14.53;10.53;;;;;;;5.93;89.96;95920.00;4975689;28;20417;-85
2022/02/09 18:34:18;;;;;;;16.73;12.73;;;;;;;5.89;90.40;95921.88;4927589;28;20448;-84
2022/02/09 18:45:19;;;;;;;16.73;11.73;;;;;;;5.95;90.22;95949.41;4895046;29;20452;-84
2022/02/09 18:48:26;;;;;;;19.70;13.63;;;;;;;5.94;90.49;95948.56;4918098;29;20439;-84
2022/02/09 19:02:06;;;;;;;16.60;13.13;;;;;;;5.87;89.73;95942.78;4994194;28;20859;-85
2022/02/09 19:14:49;;;;;;;12.00;10.77;;;;;;;5.88;89.25;95954.06;4993349;28;20838;-85
2022/02/09 19:17:26;;;;;;;10.93;9.63;;;;;;;5.82;89.81;95955.22;5054729;28;20855;-84
2022/02/09 19:30:50;;;;;;;10.50;8.67;;;;;;;5.84;88.17;95969.00;5054701;28;20421;-85
2022/02/09 19:47:17;;;;;;;11.10;10.00;;;;;;;6.05;87.44;95989.72;5054588;28;20226;-84
2022/02/09 19:52:53;;;;;;;11.70;9.30;;;;;;;5.99;87.13;95995.22;4974014;28;20453;-82
2022/02/09 19:55:30;;;;;;;10.13;9.10;;;;;;;5.95;86.68;95991.94;4973622;28;20520;-82
2022/02/09 19:57:59;;;;;;;13.80;11.40;;;;;;;5.97;86.54;95997.06;4973437;28;20445;-82
2022/02/09 20:00:29;;;;;;;10.83;9.30;;;;;;;5.93;86.66;95998.16;4974060;28;20842;-82
2022/02/09 20:02:57;;;;;;;12.10;10.17;;;;;;;5.95;86.18;96001.50;4973933;28;20446;-82
2022/02/09 20:05:25;;;;;;;12.73;10.30;;;;;;;6.02;86.51;96003.72;4974287;28;20437;-81
2022/02/09 20:14:56;;;;;;;13.70;10.00;;;;;;;5.90;86.52;96009.56;4973216;28;20432;-80
2022/02/09 20:17:22;;;;;;;16.23;9.90;;;;;;;5.87;86.43;95999.25;4973902;28;20460;-82
2022/02/09 20:19:56;;;;;;;10.90;9.00;;;;;;;5.87;85.99;95996.66;4972490;28;20872;-84
2022/02/09 20:22:23;;;;;;;10.33;8.70;;;;;;;5.91;86.07;96011.25;4973220;28;20461;-81
2022/02/09 20:24:50;;;;;;;12.27;9.90;;;;;;;6.02;86.26;96002.91;4973197;28;20454;-82
2022/02/09 20:27:21;;;;;;;11.77;9.17;;;;;;;6.11;84.89;96011.13;4973019;28;20446;-85
2022/02/09 20:29:48;;;;;;;12.67;9.80;;;;;;;6.14;84.40;96018.78;5017374;28;20966;-83
2022/02/09 20:32:20;;;;;;;14.80;10.43;;;;;;;6.17;84.15;96018.63;5053960;28;20477;-84
2022/02/09 20:34:54;;;;;;;14.63;10.00;;;;;;;6.14;84.38;96023.16;5035501;28;20530;-83
2022/02/09 20:37:25;;;;;;;13.67;9.40;;;;;;;6.14;84.05;96023.16;5054307;28;20437;-85
2022/02/09 20:39:59;;;;;;;10.40;8.67;;;;;;;6.18;84.29;96030.75;5054265;28;20480;-84
2022/02/09 20:42:27;;;;;;;11.87;10.13;;;;;;;6.26;84.54;96024.28;5053880;28;20479;-82
2022/02/09 20:51:41;;;;;;;16.63;12.77;;;;;;;6.35;83.94;96021.22;5053556;28;20895;-82
2022/02/09 20:54:09;;;;;;;13.47;11.97;;;;;;;6.29;82.73;96013.72;5053699;28;20462;-82
2022/02/09 20:56:36;;;;;;;14.60;11.03;;;;;;;6.20;83.44;96015.88;5053550;28;20442;-83
2022/02/09 20:59:07;;;;;;;13.13;10.90;;;;;;;6.15;83.93;96010.06;5053409;28;20471;-83
2022/02/09 21:01:40;;;;;;;10.80;9.47;;;;;;;6.24;84.40;96018.31;5052949;28;20521;-82
2022/02/09 21:04:11;;;;;;;10.40;9.00;;;;;;;6.29;83.97;96017.16;5053511;28;20465;-83
2022/02/09 21:06:53;;;;;;;13.40;10.10;;;;;;;6.31;83.88;96017.09;5053321;28;20461;-83
2022/02/09 21:09:31;;;;;;;11.00;9.90;;;;;;;6.33;82.97;96013.47;5053444;28;20473;-82
2022/02/09 21:12:10;;;;;;;10.50;8.90;;;;;;;6.38;82.58;96018.50;5053267;28;20437;-82
2022/02/09 21:15:04;;;;;;;20.57;13.80;;;;;;;6.35;82.26;95997.75;5053276;28;20438;-83
2022/02/09 21:17:56;;;;;;;20.80;15.57;;;;;;;6.42;81.79;96012.19;5053252;28;20996;-81
2022/02/09 21:20:43;;;;;;;20.67;13.90;;;;;;;6.48;82.51;96017.09;5053187;28;21003;-80
2022/02/09 21:23:31;;;;;;;18.93;13.07;;;;;;;6.38;81.54;96021.94;5053060;28;20445;-80
2022/02/09 21:53:59;;;;;;;21.33;11.57;;;;;;;6.30;80.41;96037.09;5090822;28;20416;-77
2022/02/09 22:00:17;;;;;;;14.73;11.47;;;;;;;6.26;79.67;96039.94;5090709;28;20408;-79
2022/02/09 22:16:47;;;;;;;17.10;13.37;;;;;;;5.84;78.95;96035.88;5090583;28;20464;-81
2022/02/09 22:19:43;;;;;;;18.60;13.03;;;;;;;5.77;80.02;96037.06;5090699;28;20500;-81
2022/02/09 22:22:30;;;;;;;19.40;13.03;;;;;;;5.70;79.95;96040.88;5090776;28;20428;-81
2022/02/09 22:27:40;;;;;;;14.90;11.17;;;;;;;5.62;80.79;96040.41;5026689;28;20472;-81
2022/02/09 22:49:38;;;;;;;13.20;9.93;;;;;;;5.38;79.63;96009.38;5026260;28;20443;-82
2022/02/09 22:54:51;;;;;;;25.30;15.10;;;;;;;5.39;79.39;95997.22;5026314;28;20439;-81
2022/02/09 22:57:24;;;;;;;29.13;14.10;;;;;;;5.37;79.79;96005.09;4993368;28;20799;-80